Weather reports worldwide

Advertisment
Stavoren aws, Netherlands (6267): temperature & dewpoint: 09.08.2020 22:00:00 - 15.08.2020 22:00:00 (CEST)Stavoren aws, Netherlands (6267): temperature 5cm: 09.08.2020 22:00:00 - 15.08.2020 22:00:00 (CEST)Stavoren aws, Netherlands (6267): wind speed & gusts: 09.08.2020 22:00:00 - 15.08.2020 22:00:00 (CEST)Stavoren aws, Netherlands (6267): wind direction: 09.08.2020 22:00:00 - 15.08.2020 22:00:00 (CEST)Stavoren aws, Netherlands (6267): visibility: 09.08.2020 22:00:00 - 15.08.2020 22:00:00 (CEST)Stavoren aws, Netherlands (6267): precipitation: 09.08.2020 22:00:00 - 15.08.2020 22:00:00 (CEST)
Date & Time tt [°C] td [°C] tt 5cm [°C] ff [km/h] ff [kn] fx [km/h] fx [kn] dd vv [km] rr [mm]
15.08.2020 22:00:00 20,9 18,6 20,6 14 8 18 10 NE 16 0,0
15.08.2020 21:00:00 21,9 18,9 21,6 11 6 18 10 NE 18 0,0
15.08.2020 20:00:00 22,9 20,3 22,9 11 6 18 10 NE 14 0,0
15.08.2020 19:00:00 23,9 19,0 24,0 11 6 14 8 NNE 23 0,0
15.08.2020 18:00:00 24,1 20,3 24,7 7 4 11 6 N 11 0,0
15.08.2020 17:00:00 24,3 19,1 25,2 4 2 14 8 W 12 0,0
15.08.2020 16:00:00 25,4 19,3 28,9 11 6 18 10 SSW 14 0,0
15.08.2020 15:00:00 24,9 20,5 28,5 11 6 22 12 SW 9 0,0
15.08.2020 14:00:00 24,5 20,1 27,0 4 2 14 8 S 8 0,0
15.08.2020 13:00:00 23,3 20,0 24,9 4 2 11 6 W 9 0,0
15.08.2020 12:00:00 22,5 20,0 22,7 4 2 7 4 NNW 7 0,0
15.08.2020 11:00:00 22,3 20,1 23,1 7 4 7 4 NNW 6 0,0
15.08.2020 10:00:00 22,8 20,2 24,0 0 0 7 4 N 7 0,0
15.08.2020 09:00:00 21,4 20,0 21,4 7 4 11 6 E 4,3 0,0
15.08.2020 08:00:00 20,3 19,7 19,9 4 2 7 4 E 2,9 0,0
15.08.2020 07:00:00 19,2 18,6 18,9 4 2 11 6 ENE 3,7 0,0
15.08.2020 06:00:00 19,0 18,5 18,6 7 4 11 6 ENE 3,3 0,0
15.08.2020 05:00:00 19,1 18,5 18,9 7 4 11 6 NE 3,0 0,0
15.08.2020 04:00:00 19,3 18,8 19,0 7 4 11 6 NE 3,0 0,0
15.08.2020 03:00:00 19,5 18,9 19,2 4 2 14 8 ENE 3,2 0,0
15.08.2020 02:00:00 20,1 19,1 19,8 11 6 18 10 ENE 4,9 0,0
15.08.2020 01:00:00 20,3 19,0 20,0 11 6 18 10 ENE 7 0,0
15.08.2020 00:00:00 20,8 19,1 20,5 11 6 18 10 ENE 10 0,0
14.08.2020 23:00:00 21,3 19,5 21,1 11 6 18 10 ENE 12 0,0
14.08.2020 22:00:00 22,6 20,1 22,3 11 6 22 12 E 18 0,0
14.08.2020 21:00:00 23,0 20,0 22,7 14 8 22 12 NE 19 0,0
14.08.2020 20:00:00 24,6 20,7 24,7 14 8 25 14 NNE 23 0,0
14.08.2020 19:00:00 24,9 21,3 25,8 18 10 25 14 N 24 0,0
14.08.2020 18:00:00 24,9 21,5 26,2 18 10 25 14 N 23 0,0
14.08.2020 17:00:00 25,1 21,2 26,5 18 10 22 12 NNW 26 0,0
14.08.2020 16:00:00 25,3 19,9 26,1 7 4 14 8 NE 19 0,0
14.08.2020 15:00:00 25,3 20,3 27,3 11 6 18 10 NNE 20 0,0
14.08.2020 14:00:00 24,2 20,2 26,9 11 6 18 10 N 27 0,0
14.08.2020 13:00:00 23,5 19,8 26,3 11 6 14 8 N 29 0,0
14.08.2020 12:00:00 22,7 19,8 24,3 11 6 14 8 NNW 24 0,0
14.08.2020 11:00:00 22,0 19,3 22,8 4 2 18 10 ENE 26 0,0
14.08.2020 10:00:00 21,2 19,2 21,5 11 6 18 10 NE 31 0,0
14.08.2020 09:00:00 19,9 18,9 19,8 7 4 14 8 NE 28 0,2
14.08.2020 08:00:00 19,6 18,6 19,4 7 4 11 6 SE 11 1,8
14.08.2020 07:00:00 19,9 18,8 19,7 7 4 22 12 SSW 11 3,0
14.08.2020 06:00:00 20,6 18,4 19,8 18 10 29 16 WSW 17 3,1
14.08.2020 05:00:00 20,7 18,7 20,2 22 12 40 21 S 18 1,6
14.08.2020 04:00:00 20,0 17,8 19,4 11 6 36 19 S 26 0,1
14.08.2020 03:00:00 21,0 19,1 19,9 22 12 36 19 ESE 12 20,3
14.08.2020 02:00:00 22,9 20,9 22,7 22 12 25 14 S 9 0,0
14.08.2020 01:00:00 23,1 21,1 21,9 7 4 11 6 E 13 0,0
14.08.2020 00:00:00 22,7 19,7 21,7 4 2 11 6 SSE 23 0,0
13.08.2020 23:00:00 23,9 20,0 22,7 7 4 11 6 E 25 0,0
13.08.2020 22:00:00 24,7 20,0 24,3 11 6 22 12 E 32 0,0
13.08.2020 21:00:00 26,0 20,7 25,6 14 8 25 14 NE 30 0,0
13.08.2020 20:00:00 26,8 21,7 26,2 11 6 18 10 N 32 0,0
13.08.2020 19:00:00 26,9 22,7 27,0 11 6 14 8 NNW 34 0,0
13.08.2020 18:00:00 27,8 22,1 29,3 14 8 18 10 NW 27 0,0
13.08.2020 17:00:00 28,8 19,9 31,1 11 6 22 12 WNW 28 0,0
13.08.2020 16:00:00 29,4 20,1 31,3 11 6 22 12 SW 32 0,0
13.08.2020 15:00:00 30,2 18,9 32,6 11 6 25 14 E 34 0,0
13.08.2020 14:00:00 29,1 18,8 30,6 11 6 25 14 ENE 31 0,0
13.08.2020 13:00:00 28,7 19,3 30,9 14 8 22 12 ENE 23 0,0
13.08.2020 12:00:00 27,5 18,0 29,6 14 8 22 12 ENE 32 0,0
13.08.2020 11:00:00 26,2 17,9 27,7 14 8 22 12 ENE 24 0,0
13.08.2020 10:00:00 25,1 18,9 26,2 11 6 18 10 E 21 0,0
13.08.2020 09:00:00 23,0 18,2 23,6 7 4 18 10 E 17 0,0
13.08.2020 08:00:00 20,9 17,7 20,9 11 6 18 10 E 16 0,0
13.08.2020 07:00:00 21,0 17,3 20,0 14 8 18 10 E 20 0,0
13.08.2020 06:00:00 19,5 17,1 18,6 11 6 14 8 E 15 0,0
13.08.2020 05:00:00 19,9 17,3 18,3 11 6 14 8 E 16 0,0
13.08.2020 04:00:00 19,7 17,2 19,3 7 4 14 8 E 17 0,0
13.08.2020 03:00:00 20,4 17,5 19,7 11 6 14 8 E 20 0,0
13.08.2020 02:00:00 21,3 18,1 20,6 14 8 18 10 E 18 0,0
13.08.2020 01:00:00 21,1 18,8 20,6 14 8 14 8 NE 12 0,0
13.08.2020 00:00:00 21,6 19,3 19,3 7 4 11 6 E 13 0,0
12.08.2020 23:00:00 22,8 19,8 19,6 7 4 11 6 ENE 15 0,0
12.08.2020 22:00:00 23,9 20,9 22,8 7 4 11 6 NE 17 0,0
12.08.2020 21:00:00 25,6 22,6 24,9 11 6 18 10 N 25 0,0
12.08.2020 20:00:00 26,6 21,7 26,5 14 8 18 10 N 29 0,0
12.08.2020 19:00:00 26,6 23,7 27,5 14 8 22 12 NNW 16 0,0
12.08.2020 18:00:00 27,1 22,8 28,6 14 8 18 10 NNW 17 0,0
12.08.2020 17:00:00 27,3 21,7 29,2 18 10 22 12 NNW 19 0,0
12.08.2020 16:00:00 27,4 21,9 29,9 14 8 18 10 NNW 21 0,0
12.08.2020 15:00:00 28,9 20,0 31,7 11 6 14 8 WNW 27 0,0
12.08.2020 14:00:00 27,9 21,0 30,8 11 6 18 10 W 17 0,0
12.08.2020 13:00:00 29,8 18,4 32,1 7 4 14 8 SE 27 0,0
12.08.2020 12:00:00 28,4 17,8 30,8 7 4 18 10 E 27 0,0
12.08.2020 11:00:00 26,8 17,3 29,1 11 6 14 8 E 30 0,0
12.08.2020 10:00:00 25,4 16,7 26,5 11 6 22 12 ESE 33 0,0
12.08.2020 09:00:00 24,2 16,6 24,8 11 6 18 10 E 37 0,0
12.08.2020 08:00:00 22,3 16,0 22,0 14 8 22 12 E 37 0,0
12.08.2020 07:00:00 21,0 16,2 20,3 14 8 22 12 ESE 34 0,0
12.08.2020 06:00:00 21,2 17,0 20,7 14 8 22 12 E 21 0,0
12.08.2020 05:00:00 21,4 17,2 20,4 14 8 18 10 E 22 0,0
12.08.2020 04:00:00 21,7 17,0 20,5 14 8 18 10 E 24 0,0
12.08.2020 03:00:00 21,8 17,5 20,7 11 6 14 8 E 21 0,0
12.08.2020 02:00:00 22,9 18,0 22,0 11 6 18 10 E 26 0,0
12.08.2020 01:00:00 23,3 18,7 22,7 11 6 14 8 E 23 0,0
12.08.2020 00:00:00 24,9 18,7 23,9 14 8 18 10 E 27 0,0
11.08.2020 23:00:00 25,2 19,0 24,3 11 6 18 10 E 27 0,0
11.08.2020 22:00:00 26,8 19,2 25,6 11 6 22 12 E 32 0,0
11.08.2020 21:00:00 28,7 19,6 27,8 11 6 18 10 ENE 27 0,0
11.08.2020 20:00:00 30,6 19,3 30,0 11 6 14 8 E 30 0,0
11.08.2020 19:00:00 31,4 18,9 31,3 11 6 14 8 ENE 35 0,0
11.08.2020 18:00:00 31,7 18,7 31,2 11 6 22 12 E 35 0,0
11.08.2020 17:00:00 32,2 18,3 33,0 14 8 25 14 E 34 0,0
11.08.2020 16:00:00 32,2 17,8 33,5 22 12 36 19 ESE 29 0,0
11.08.2020 15:00:00 31,8 18,2 33,8 25 14 36 19 ESE 25 0,0
11.08.2020 14:00:00 31,2 18,4 32,8 25 14 36 19 ESE 25 0,0
11.08.2020 13:00:00 29,4 18,9 30,9 25 14 36 19 E 29 0,0
11.08.2020 12:00:00 28,6 18,8 30,0 25 14 36 19 E 30 0,0
11.08.2020 11:00:00 26,2 18,1 27,3 22 12 32 18 E 23 0,0
11.08.2020 10:00:00 24,7 17,7 25,7 18 10 29 16 E 24 0,0
11.08.2020 09:00:00 24,0 17,7 24,6 18 10 29 16 E 25 0,0
11.08.2020 08:00:00 21,8 17,3 21,7 18 10 25 14 E 19 0,0
11.08.2020 07:00:00 20,8 17,1 20,1 14 8 25 14 ENE 17 0,0
11.08.2020 06:00:00 21,1 17,1 20,4 14 8 25 14 E 19 0,0
11.08.2020 05:00:00 21,2 17,2 20,2 11 6 18 10 ENE 18 0,0
11.08.2020 04:00:00 21,4 17,5 20,4 14 8 22 12 E 18 0,0
11.08.2020 03:00:00 21,2 17,9 20,5 11 6 18 10 ENE 17 0,0
11.08.2020 02:00:00 21,4 17,9 20,9 11 6 22 12 E 19 0,0
11.08.2020 01:00:00 23,5 19,4 22,6 11 6 18 10 ENE 19 0,0
11.08.2020 00:00:00 24,3 19,6 23,4 14 8 22 12 ENE 19 0,0
10.08.2020 23:00:00 24,6 20,6 23,4 11 6 25 14 ENE 16 0,0
10.08.2020 22:00:00 23,6 20,7 22,8 14 8 18 10 NE 14 0,0
10.08.2020 21:00:00 25,3 21,4 24,8 11 6 22 12 NE 18 0,0
10.08.2020 20:00:00 27,4 21,6 27,4 14 8 25 14 NE 22 0,0
10.08.2020 19:00:00 28,8 21,4 28,9 22 12 29 16 NE 24 0,0
10.08.2020 18:00:00 30,1 21,4 30,8 22 12 29 16 NE 33 0,0
10.08.2020 17:00:00 31,1 18,2 32,2 14 8 25 14 ENE 27 0,0
10.08.2020 16:00:00 31,3 18,1 32,7 18 10 29 16 ENE 31 0,0
10.08.2020 15:00:00 30,8 18,0 32,6 14 8 25 14 ENE 36 0,0
10.08.2020 14:00:00 30,2 18,3 32,0 14 8 22 12 ENE 29 0,0
10.08.2020 13:00:00 28,7 18,3 30,6 14 8 22 12 ENE 23 0,0
10.08.2020 12:00:00 27,7 18,6 29,8 11 6 18 10 ENE 29 0,0
10.08.2020 11:00:00 26,2 18,2 27,7 14 8 22 12 E 26 0,0
10.08.2020 10:00:00 24,6 18,4 26,2 14 8 22 12 E 12 0,0
10.08.2020 09:00:00 22,4 17,8 22,9 14 8 25 14 E 19 0,0
10.08.2020 08:00:00 21,0 17,2 21,0 14 8 25 14 E 21 0,0
10.08.2020 07:00:00 18,7 16,8 18,1 11 6 22 12 E 12 0,0
10.08.2020 06:00:00 19,0 16,8 18,4 14 8 18 10 E 17 0,0
10.08.2020 05:00:00 18,6 16,7 17,8 11 6 18 10 E 15 0,0
10.08.2020 04:00:00 19,1 17,1 18,4 14 8 25 14 E 16 0,0
10.08.2020 03:00:00 20,3 17,3 19,7 18 10 29 16 E 24 0,0
10.08.2020 02:00:00 19,4 17,4 18,9 18 10 25 14 ENE 18 0,0
10.08.2020 01:00:00 19,9 17,1 19,4 14 8 25 14 ENE 22 0,0
10.08.2020 00:00:00 19,5 17,5 19,1 18 10 25 14 NE 16 0,0
09.08.2020 23:00:00 20,0 17,3 19,5 18 10 25 14 NE 20 0,0
09.08.2020 22:00:00 20,9 17,9 20,5 18 10 25 14 NE 23 0,0

tt = temperature
td = dewpoint
tt 5cm = temperature 5cm
ff = wind speed
fx = gusts
dd = wind direction
vv = visibility
rr = precipitation

Next stations